EW5637 Weather Reports


Display with metric or nautical units.
time (UTC)temp
F
wind
direction
speed
MPH
gust
MPH
rain 1hr
in
rain 24hr
in
rain mn
in
humidity
%
barometer
mb
20240519040052 60 0 0.0 0.0 0.00 0.26 0.00 95 1015.1
20240519034557 60 0 0.0 0.0 0.00 0.26 0.26 94 1015.0
20240519033054 60 0 0.0 2.0 0.00 0.26 0.26 94 1015.1
20240519031546 60 171 1.0 4.0 0.00 0.26 0.26 94 1015.1
20240519030044 60 0 0.0 0.0 0.00 0.26 0.26 94 1015.0
20240519024543 61 0 0.0 0.0 0.00 0.26 0.26 94 1015.1
20240519023045 61 0 0.0 0.0 0.00 0.26 0.26 93 1015.1
20240519021544 61 0 1.0 2.0 0.00 0.26 0.26 93 1015.2
20240519020041 61 0 0.0 0.0 0.00 0.26 0.26 93 1015.0
20240519014551 61 0 0.0 3.0 0.00 0.26 0.26 92 1015.2
20240519013048 61 166 1.0 5.0 0.00 0.26 0.26 92 1015.1
20240519011545 61 0 0.0 2.0 0.00 0.26 0.26 92 1014.8
20240519010042 61 143 1.0 4.0 0.00 0.26 0.26 91 1014.6
20240519004540 62 143 1.0 4.0 0.00 0.26 0.26 91 1014.5
20240519003046 62 0 0.0 1.0 0.00 0.26 0.26 90 1014.5
20240519001543 62 0 0.0 2.0 0.00 0.26 0.26 90 1014.6
20240519000040 62 0 0.0 2.0 0.00 0.26 0.26 89 1014.6
20240518234544 62 0 1.0 3.0 0.00 0.26 0.26 89 1014.6
20240518233044 63 0 0.0 3.0 0.00 0.26 0.26 89 1014.7
20240518231541 63 146 0.0 4.0 0.00 0.26 0.26 88 1014.7
20240518230049 63 153 1.0 5.0 0.00 0.26 0.26 88 1014.5
20240518224549 63 150 0.0 4.0 0.00 0.26 0.26 88 1014.7
20240518223041 63 0 1.0 6.0 0.00 0.26 0.26 88 1014.5
20240518221550 63 140 1.0 6.0 0.00 0.26 0.26 88 1014.5
20240518220044 63 124 3.0 6.0 0.00 0.26 0.26 88 1014.3
20240518214538 63 107 2.0 4.0 0.00 0.26 0.26 88 1014.3
20240518213049 63 137 2.0 5.0 0.00 0.26 0.26 88 1014.4
20240518211542 64 162 3.0 6.0 0.00 0.26 0.26 87 1014.5
20240518210051 64 160 1.0 7.0 0.00 0.26 0.26 87 1014.4
20240518204541 64 139 1.0 5.0 0.00 0.26 0.26 87 1014.4
20240518203041 63 155 2.0 7.0 0.00 0.26 0.26 87 1014.3
20240518201544 64 0 2.0 4.0 0.00 0.26 0.26 87 1014.4
20240518200043 64 175 3.0 6.0 0.00 0.26 0.26 88 1014.6
20240518194547 63 137 1.0 4.0 0.00 0.26 0.26 89 1014.6
20240518193041 63 142 2.0 7.0 0.00 0.26 0.26 89 1014.7
20240518191550 63 132 2.0 6.0 0.00 0.26 0.26 89 1014.7
20240518190053 63 119 2.0 6.0 0.00 0.26 0.26 89 1014.9
20240518184542 63 0 0.0 4.0 0.00 0.26 0.26 90 1014.8
20240518183056 62 0 1.0 3.0 0.00 0.26 0.26 91 1015.0
20240518181602 62 182 3.0 7.0 0.00 0.26 0.26 91 1015.0
20240518180048 62 142 4.0 8.0 0.00 0.26 0.26 91 1015.1
20240518174548 62 147 4.0 9.0 0.00 0.26 0.26 91 1015.2
20240518173050 62 150 1.0 6.0 0.00 0.26 0.26 92 1015.2
20240518171546 62 125 3.0 7.0 0.00 0.26 0.26 94 1015.4
20240518170045 61 144 2.0 7.0 0.00 0.26 0.26 94 1015.4
20240518164548 61 0 1.0 4.0 0.00 0.26 0.26 95 1015.3
20240518163043 61 150 2.0 5.0 0.00 0.26 0.26 96 1015.2
20240518161544 60 175 2.0 6.0 0.00 0.26 0.26 95 1015.3
20240518160045 60 170 0.0 6.0 0.00 0.26 0.26 95 1015.4
20240518154544 60 141 2.0 7.0 0.00 0.26 0.26 95 1015.3
20240518153044 60 141 4.0 9.0 0.01 0.26 0.26 95 1015.3
20240518151604 60 128 3.0 7.0 0.01 0.26 0.26 96 1015.3
20240518150040 60 144 3.0 9.0 0.01 0.26 0.26 96 1015.2
20240518144542 60 135 2.0 6.0 0.01 0.26 0.26 96 1015.1
20240518143048 60 150 2.0 6.0 0.00 0.25 0.25 96 1015.1
20240518141543 60 139 2.0 5.0 0.01 0.25 0.25 96 1015.1
20240518140047 60 105 1.0 4.0 0.02 0.25 0.25 96 1014.9
20240518134549 60 133 1.0 4.0 0.03 0.25 0.25 96 1014.7
20240518133041 59 113 2.0 6.0 0.06 0.25 0.25 96 1014.7
20240518131539 59 113 3.0 7.0 0.07 0.24 0.24 96 1014.9
20240518130059 59 127 3.0 6.0 0.07 0.23 0.23 96 1015.0
20240518124605 59 123 2.0 4.0 0.08 0.22 0.22 96 1015.0
20240518123103 59 123 1.0 4.0 0.09 0.19 0.19 96 1014.9
20240518121559 59 123 2.0 4.0 0.10 0.17 0.17 96 1014.9
20240518120103 59 108 2.0 4.0 0.11 0.16 0.16 95 1014.8
20240518114606 59 127 1.0 3.0 0.10 0.14 0.14 95 1014.6
20240518113051 59 0 1.0 3.0 0.07 0.10 0.10 95 1014.6
20240518111552 59 0 0.0 2.0 0.04 0.07 0.07 95 1014.7
20240518110050 59 0 0.0 1.0 0.02 0.05 0.05 95 1014.5
20240518104547 59 0 0.0 1.0 0.01 0.04 0.04 95 1014.6
20240518103048 59 0 0.0 0.0 0.00 0.03 0.03 95 1014.4
20240518101556 59 0 0.0 0.0 0.01 0.03 0.03 95 1014.1
20240518100104 59 0 0.0 0.0 0.01 0.03 0.03 95 1013.9
20240518094553 59 0 0.0 0.0 0.01 0.03 0.03 95 1013.9
20240518093050 59 0 0.0 0.0 0.02 0.03 0.03 94 1013.7
20240518091546 59 0 0.0 0.0 0.01 0.02 0.02 94 1013.7
20240518090048 59 0 0.0 0.0 0.02 0.02 0.02 94 1013.5
20240518084545 59 0 0.0 0.0 0.02 0.02 0.02 94 1013.5
20240518083048 59 0 0.0 0.0 0.01 0.01 0.01 94 1013.5
20240518081548 59 0 0.0 0.0 0.01 0.01 0.01 94 1013.6
20240518080058 59 0 0.0 0.0 0.00 0.00 0.00 93 1013.7
20240518074604 59 0 0.0 0.0 0.00 0.00 0.00 93 1013.7
20240518073107 59 0 0.0 0.0 0.00 0.00 0.00 92 1013.7
20240518071607 59 0 0.0 0.0 0.00 0.00 0.00 92 1013.8
20240518070058 59 0 0.0 0.0 0.00 0.00 0.00 92 1013.9
20240518064614 59 0 0.0 2.0 0.00 0.00 0.00 91 1014.1
20240518063119 60 0 0.0 1.0 0.00 0.00 0.00 91 1013.9
20240518061612 60 0 0.0 2.0 0.00 0.00 0.00 90 1014.0
20240518060110 60 127 2.0 4.0 0.00 0.00 0.00 90 1014.1
20240518054627 60 122 0.0 4.0 0.00 0.00 0.00 89 1014.2
20240518053131 60 109 2.0 4.0 0.00 0.00 0.00 89 1014.4
20240518051609 60 145 2.0 5.0 0.00 0.00 0.00 89 1014.5
20240518050121 60 132 2.0 6.0 0.00 0.00 0.00 88 1014.5
20240518044620 60 163 1.0 8.0 0.00 0.00 0.00 88 1014.7
20240518043130 60 0 3.0 8.0 0.00 0.00 0.00 89 1014.7
20240518041621 60 176 1.0 7.0 0.00 0.00 0.00 91 1014.5